Anch, Alaska
Current Conditions -  °F | °C
As of 7:58 AM on Friday 31 Oct 2014 (Local Time) from PAED Reporting Station
Broken Clouds Broken Clouds  
Wind Chill:   Ceiling: 6000
Heat Index: 20°   Visibility: 10mi
Dew Point: 18°   Wind: 10mph
Humidity: 89%   Direction: 30°NNE
Pressure: 29.25"   Gusts: NA
Location:  61.2265°N, 149.62°W
Report Text: PAED 311558Z AUTO 03009KT 10SM BKN060 M06/M08 A2925 RMK AO2 SLP903 T10641080 $
Loading
Personal Weather Stations






























Interactive Weather Map
Tropical Storm Tracking
New forecast layout! Learn more

10-Day Weather Forecast

Advertisements
Track Severe Weather on mobile